Time;durP1;ratioP1;P1;durP2;ratioP2;P2;SDS_P1;SDS_P2;PMS_P1;PMS_P2;Temp;Humidity;BMP_temperature;BMP_pressure;BME280_temperature;BME280_humidity;BME280_pressure;Samples;Min_cycle;Max_cycle;Signal;HPM_P1;HPM_P2
2021/04/25 00:05:26;;;;;;;9.77;6.03;;;;;;;;;;4301160;33;20235;-75
2021/04/25 00:07:55;;;;;;;12.10;6.07;;;;;;;;;;4301692;33;20171;-76
2021/04/25 00:13:50;;;;;;;12.47;5.70;;;;;;;;;;4316348;33;20228;-77
2021/04/25 00:19:51;;;;;;;15.07;6.17;;;;;;;;;;4375086;32;20652;-77
2021/04/25 00:22:27;;;;;;;14.00;5.73;;;;;;;;;;4375548;32;20142;-77
2021/04/25 00:24:52;;;;;;;17.60;6.43;;;;;;;;;;4376148;32;20162;-77
2021/04/25 00:27:37;;;;;;;12.20;5.93;;;;;;;;;;4377689;32;20172;-77
2021/04/25 00:30:16;;;;;;;12.50;6.03;;;;;;;;;;4369240;32;20170;-76
2021/04/25 00:33:13;;;;;;;13.97;5.70;;;;;;;;;;4362530;32;20197;-76
2021/04/25 00:42:39;;;;;;;;;;;;;;;;;;;;;
2021/04/25 00:45:41;;;;;;;10.73;5.23;;;;;;;;;;4301654;33;20159;-76
2021/04/25 00:48:25;;;;;;;14.77;5.80;;;;;;;;;;4292512;33;20683;-76
2021/04/25 01:03:23;;;;;;;10.30;5.67;;;;;;;;;;4303077;33;20150;-76
2021/04/25 01:06:20;;;;;;;13.17;6.47;;;;;;;;;;4303197;33;20128;-75
2021/04/25 01:08:46;;;;;;;11.57;5.63;;;;;;;;;;4305811;33;20160;-75
2021/04/25 01:21:19;;;;;;;10.80;5.40;;;;;;;;;;4203159;34;20167;-76
2021/04/25 01:24:24;;;;;;;;;;;;;;;;;;;;;
2021/04/25 01:27:15;;;;;;;12.00;6.20;;;;;;;;;;4174822;34;20511;-76
2021/04/25 01:38:55;;;;;;;14.60;5.50;;;;;;;;;;4214392;34;20147;-76
2021/04/25 01:41:23;;;;;;;13.33;6.37;;;;;;;;;;4228639;34;20165;-75
2021/04/25 01:43:51;;;;;;;12.03;5.77;;;;;;;;;;4249159;33;20218;-76
2021/04/25 01:46:45;;;;;;;14.73;6.70;;;;;;;;;;4286436;33;20487;-77
2021/04/25 01:49:40;;;;;;;13.90;6.80;;;;;;;;;;4243812;33;20165;-77
2021/04/25 01:55:16;;;;;;;14.40;6.23;;;;;;;;;;4257993;33;20164;-77
2021/04/25 01:58:07;;;;;;;10.40;6.23;;;;;;;;;;4284721;33;20215;-76
2021/04/25 02:00:35;;;;;;;12.43;6.37;;;;;;;;;;4275201;33;20239;-76
2021/04/25 02:03:00;;;;;;;14.00;6.53;;;;;;;;;;4285732;33;20148;-76
2021/04/25 02:05:28;;;;;;;12.97;6.67;;;;;;;;;;4285939;33;20168;-76
2021/04/25 02:08:05;;;;;;;15.17;7.03;;;;;;;;;;4333653;33;20179;-76
2021/04/25 02:10:41;;;;;;;13.67;6.10;;;;;;;;;;4346793;33;20209;-76
2021/04/25 02:13:12;;;;;;;13.90;7.00;;;;;;;;;;4342186;33;20155;-76
2021/04/25 02:15:47;;;;;;;15.43;7.03;;;;;;;;;;4346777;33;20179;-75
2021/04/25 02:18:18;;;;;;;13.67;6.57;;;;;;;;;;4346407;33;20127;-76
2021/04/25 02:20:44;;;;;;;13.07;6.13;;;;;;;;;;4346186;33;20166;-75
2021/04/25 02:26:17;;;;;;;14.93;6.40;;;;;;;;;;4342484;33;20159;-75
2021/04/25 02:31:26;;;;;;;12.80;5.73;;;;;;;;;;4346285;33;20176;-75
2021/04/25 02:33:54;;;;;;;11.27;6.00;;;;;;;;;;4346027;33;20132;-75
2021/04/25 02:36:48;;;;;;;13.70;6.00;;;;;;;;;;4344556;33;20232;-77
2021/04/25 02:39:20;;;;;;;15.03;6.03;;;;;;;;;;4345797;33;20151;-77
2021/04/25 02:42:15;;;;;;;;;;;;;;;;;;;;;
2021/04/25 02:54:25;;;;;;;10.67;4.87;;;;;;;;;;4300217;33;20178;-77
2021/04/25 02:57:45;;;;;;;;;;;;;;;;;;;;;
2021/04/25 03:00:15;;;;;;;9.67;4.47;;;;;;;;;;4293214;33;20164;-77
2021/04/25 03:03:11;;;;;;;9.37;4.30;;;;;;;;;;4242773;33;20142;-77
2021/04/25 03:15:00;;;;;;;10.07;3.63;;;;;;;;;;4300218;33;20187;-76
2021/04/25 03:27:11;;;;;;;7.17;3.47;;;;;;;;;;4305328;33;20143;-76
2021/04/25 03:29:58;;;;;;;8.77;3.50;;;;;;;;;;4314075;33;20262;-76
2021/04/25 03:32:53;;;;;;;7.67;3.43;;;;;;;;;;4322329;33;20561;-76
2021/04/25 03:35:24;;;;;;;7.13;3.13;;;;;;;;;;4345973;33;20132;-76
2021/04/25 03:38:07;;;;;;;7.77;3.47;;;;;;;;;;4359536;33;20299;-76
2021/04/25 03:40:56;;;;;;;8.43;3.80;;;;;;;;;;4359821;33;20166;-75
2021/04/25 03:43:36;;;;;;;9.37;3.50;;;;;;;;;;4361223;32;20832;-76
2021/04/25 03:46:04;;;;;;;8.13;3.70;;;;;;;;;;4363239;32;20213;-75
2021/04/25 03:49:23;;;;;;;7.07;3.67;;;;;;;;;;4361994;32;20559;-76
2021/04/25 03:51:55;;;;;;;10.43;4.10;;;;;;;;;;4345520;32;20162;-76
2021/04/25 03:54:37;;;;;;;9.70;4.33;;;;;;;;;;4373810;32;20266;-76
2021/04/25 03:57:13;;;;;;;;;;;;;;;;;;;;;
2021/04/25 04:00:05;;;;;;;10.13;3.83;;;;;;;;;;4360092;32;20615;-76
2021/04/25 04:03:17;;;;;;;7.60;3.57;;;;;;;;;;4344823;32;20209;-76
2021/04/25 04:06:05;;;;;;;7.90;3.77;;;;;;;;;;4301055;33;20187;-76
2021/04/25 04:11:53;;;;;;;8.77;4.00;;;;;;;;;;4348030;33;20584;-75
2021/04/25 04:14:34;;;;;;;7.90;3.63;;;;;;;;;;4347494;33;20139;-75
2021/04/25 04:17:06;;;;;;;6.73;3.60;;;;;;;;;;4347618;33;20194;-76
2021/04/25 04:19:47;;;;;;;7.33;3.57;;;;;;;;;;4347141;33;20182;-75
2021/04/25 04:22:46;;;;;;;;;;;;;;;;;;;;;
2021/04/25 04:25:27;;;;;;;7.57;3.60;;;;;;;;;;4315242;33;20171;-76
2021/04/25 04:28:26;;;;;;;9.33;4.23;;;;;;;;;;4346046;33;20477;-75
2021/04/25 04:30:57;;;;;;;9.30;4.73;;;;;;;;;;4347607;33;20143;-76
2021/04/25 04:33:36;;;;;;;10.67;4.33;;;;;;;;;;4348407;33;20128;-76
2021/04/25 04:36:26;;;;;;;10.67;4.33;;;;;;;;;;4347705;33;20529;-76
2021/04/25 04:39:03;;;;;;;6.20;3.63;;;;;;;;;;4341283;33;20495;-76
2021/04/25 04:41:31;;;;;;;6.17;2.97;;;;;;;;;;4334341;33;20166;-75
2021/04/25 04:43:58;;;;;;;10.53;3.07;;;;;;;;;;4347479;33;20517;-76
2021/04/25 04:46:46;;;;;;;12.63;3.20;;;;;;;;;;4347034;33;20186;-75
2021/04/25 04:49:27;;;;;;;5.77;2.63;;;;;;;;;;4347864;33;20131;-76
2021/04/25 04:54:40;;;;;;;8.13;2.73;;;;;;;;;;4346423;33;20599;-76
2021/04/25 04:57:16;;;;;;;5.37;2.53;;;;;;;;;;4346708;33;20135;-76
2021/04/25 05:00:11;;;;;;;;;;;;;;;;;;;;;
2021/04/25 05:02:50;;;;;;;5.80;2.10;;;;;;;;;;4330376;33;20144;-77
2021/04/25 05:08:48;;;;;;;7.23;2.13;;;;;;;;;;4275088;33;20296;-76
2021/04/25 05:11:50;;;;;;;5.40;2.13;;;;;;;;;;4286417;33;20145;-76
2021/04/25 05:14:40;;;;;;;6.17;2.40;;;;;;;;;;4287355;33;20611;-76
2021/04/25 05:17:46;;;;;;;;;;;;;;;;;;;;;
2021/04/25 05:23:25;;;;;;;11.60;2.47;;;;;;;;;;4340734;33;20523;-76
2021/04/25 05:26:02;;;;;;;4.57;2.10;;;;;;;;;;4347433;33;20615;-76
2021/04/25 05:28:43;;;;;;;9.60;2.27;;;;;;;;;;4356340;33;20166;-76
2021/04/25 05:31:40;;;;;;;5.17;2.40;;;;;;;;;;4361825;33;20127;-76
2021/04/25 05:34:11;;;;;;;5.67;2.47;;;;;;;;;;4308552;33;20574;-76
2021/04/25 05:37:18;;;;;;;;;;;;;;;;;;;;;
2021/04/25 05:40:05;;;;;;;10.03;2.60;;;;;;;;;;4357144;33;20175;-76
2021/04/25 05:42:30;;;;;;;6.90;2.50;;;;;;;;;;4347578;33;20185;-75
2021/04/25 05:45:03;;;;;;;7.47;2.60;;;;;;;;;;4360914;32;20143;-76
2021/04/25 05:50:43;;;;;;;6.10;2.80;;;;;;;;;;4329412;33;20171;-76
2021/04/25 05:53:36;;;;;;;8.93;2.97;;;;;;;;;;4317363;33;20167;-76
2021/04/25 05:56:11;;;;;;;9.73;2.67;;;;;;;;;;4329126;33;20189;-76
2021/04/25 05:58:39;;;;;;;6.93;2.80;;;;;;;;;;4329869;33;20186;-77
2021/04/25 06:01:08;;;;;;;8.53;2.70;;;;;;;;;;4329398;33;20171;-77
2021/04/25 06:03:36;;;;;;;4.90;2.80;;;;;;;;;;4329628;33;20135;-76
2021/04/25 06:06:02;;;;;;;7.70;2.67;;;;;;;;;;4328842;33;20152;-74
2021/04/25 06:09:04;;;;;;;10.60;3.47;;;;;;;;;;4329674;33;20160;-75
2021/04/25 06:11:55;;;;;;;8.93;2.80;;;;;;;;;;4312791;33;20164;-75
2021/04/25 06:14:46;;;;;;;6.50;3.00;;;;;;;;;;4352301;33;20232;-75
2021/04/25 06:17:38;;;;;;;6.63;2.90;;;;;;;;;;4345415;33;20147;-75
2021/04/25 06:20:19;;;;;;;12.33;3.40;;;;;;;;;;4345695;33;20206;-76
2021/04/25 06:23:00;;;;;;;9.60;2.97;;;;;;;;;;4355206;33;20169;-76
2021/04/25 06:25:38;;;;;;;6.37;3.00;;;;;;;;;;4361125;32;20139;-75
2021/04/25 06:28:06;;;;;;;6.43;2.40;;;;;;;;;;4359044;32;20201;-75
2021/04/25 06:30:34;;;;;;;7.73;2.93;;;;;;;;;;4350635;33;20163;-75
2021/04/25 06:33:13;;;;;;;7.03;2.73;;;;;;;;;;4351640;33;20198;-75
2021/04/25 06:36:00;;;;;;;5.90;2.63;;;;;;;;;;4345749;33;20546;-74
2021/04/25 06:39:09;;;;;;;9.97;2.90;;;;;;;;;;4346396;33;20140;-75
2021/04/25 06:41:37;;;;;;;;;;;;;;;;;;;;;
2021/04/25 06:44:12;;;;;;;9.07;3.17;;;;;;;;;;4346031;33;20128;-75
2021/04/25 06:46:38;;;;;;;6.20;2.57;;;;;;;;;;4346182;33;20473;-75
2021/04/25 06:55:43;;;;;;;5.93;2.63;;;;;;;;;;4335742;33;20164;-76
2021/04/25 06:58:22;;;;;;;8.70;2.10;;;;;;;;;;4332933;33;20174;-75
2021/04/25 07:07:18;;;;;;;;;;;;;;;;;;;;;
2021/04/25 07:17:51;;;;;;;7.27;1.80;;;;;;;;;;4285146;33;20184;-75
2021/04/25 07:20:23;;;;;;;6.43;1.80;;;;;;;;;;4288586;33;20152;-74
2021/04/25 07:22:54;;;;;;;8.43;2.00;;;;;;;;;;4345390;33;20199;-74
2021/04/25 07:25:19;;;;;;;6.67;2.00;;;;;;;;;;4331912;33;20181;-73
2021/04/25 07:27:44;;;;;;;6.03;2.00;;;;;;;;;;4345645;33;20132;-73
2021/04/25 07:30:19;;;;;;;6.27;2.10;;;;;;;;;;4356361;32;20139;-74
2021/04/25 07:32:47;;;;;;;7.33;2.07;;;;;;;;;;4324712;33;20143;-73
2021/04/25 07:35:15;;;;;;;5.47;1.80;;;;;;;;;;4330048;33;20178;-75
2021/04/25 07:37:48;;;;;;;5.63;1.73;;;;;;;;;;4330594;33;20140;-74
2021/04/25 07:40:30;;;;;;;5.10;1.73;;;;;;;;;;4330500;33;20186;-74
2021/04/25 07:42:55;;;;;;;9.17;2.07;;;;;;;;;;4330650;33;20198;-74
2021/04/25 07:45:21;;;;;;;6.87;2.20;;;;;;;;;;4330397;33;20128;-75
2021/04/25 07:47:48;;;;;;;5.43;1.50;;;;;;;;;;4330140;33;20135;-74
2021/04/25 07:50:22;;;;;;;5.73;1.60;;;;;;;;;;4330610;33;20131;-74
2021/04/25 07:52:48;;;;;;;7.70;1.83;;;;;;;;;;4330582;33;20170;-75
2021/04/25 07:55:25;;;;;;;7.20;1.60;;;;;;;;;;4330270;33;20206;-75
2021/04/25 07:57:50;;;;;;;6.43;1.77;;;;;;;;;;4329814;33;20488;-73
2021/04/25 08:00:16;;;;;;;9.33;1.63;;;;;;;;;;4330128;33;20128;-74
2021/04/25 08:02:41;;;;;;;9.10;2.20;;;;;;;;;;4330513;33;20136;-74
2021/04/25 08:05:14;;;;;;;9.10;1.47;;;;;;;;;;4330337;33;20218;-75
2021/04/25 08:07:39;;;;;;;11.80;1.70;;;;;;;;;;4343899;33;20483;-73
2021/04/25 08:10:17;;;;;;;7.53;1.30;;;;;;;;;;4348462;32;20187;-75
2021/04/25 08:12:51;;;;;;;5.60;1.60;;;;;;;;;;4360211;33;20201;-75
2021/04/25 08:15:22;;;;;;;8.60;1.73;;;;;;;;;;4346147;33;20464;-73
2021/04/25 08:17:57;;;;;;;10.13;1.67;;;;;;;;;;4360603;33;20206;-73
2021/04/25 08:20:49;;;;;;;6.93;1.67;;;;;;;;;;4359952;33;20142;-73
2021/04/25 08:23:13;;;;;;;6.53;1.67;;;;;;;;;;4359352;33;20164;-73
2021/04/25 08:25:42;;;;;;;9.93;1.73;;;;;;;;;;4359578;33;20184;-74
2021/04/25 08:28:26;;;;;;;7.67;1.67;;;;;;;;;;4345871;33;20136;-73
2021/04/25 08:30:52;;;;;;;8.70;1.70;;;;;;;;;;4357957;32;20154;-74
2021/04/25 08:33:17;;;;;;;6.40;1.53;;;;;;;;;;4362166;32;20158;-73
2021/04/25 08:35:45;;;;;;;5.97;1.50;;;;;;;;;;4362080;33;20453;-75
2021/04/25 08:38:13;;;;;;;6.87;1.80;;;;;;;;;;4362021;32;20123;-74
2021/04/25 08:40:39;;;;;;;6.27;1.60;;;;;;;;;;4359724;32;20173;-73
2021/04/25 08:43:04;;;;;;;12.37;1.57;;;;;;;;;;4347688;33;20190;-72
2021/04/25 08:45:29;;;;;;;6.53;1.57;;;;;;;;;;4347045;33;20287;-73
2021/04/25 08:47:59;;;;;;;9.33;1.77;;;;;;;;;;4347590;33;20229;-73
2021/04/25 08:50:25;;;;;;;6.33;2.00;;;;;;;;;;4346371;33;20159;-74
2021/04/25 08:53:00;;;;;;;5.93;1.40;;;;;;;;;;4347633;33;20128;-73
2021/04/25 08:55:26;;;;;;;5.20;1.53;;;;;;;;;;4358597;32;20138;-73
2021/04/25 08:57:51;;;;;;;6.53;1.60;;;;;;;;;;4352969;32;20231;-74
2021/04/25 09:00:17;;;;;;;6.00;1.80;;;;;;;;;;4348177;33;20201;-72
2021/04/25 09:02:45;;;;;;;4.62;1.40;;;;;;;;;;4348710;33;20493;-74
2021/04/25 09:05:17;;;;;;;9.17;1.67;;;;;;;;;;4362057;32;20213;-72
2021/04/25 09:08:00;;;;;;;12.02;1.90;;;;;;;;;;4361239;32;20274;-74
2021/04/25 09:10:36;;;;;;;7.50;1.77;;;;;;;;;;4362553;32;20138;-73
2021/04/25 09:13:22;;;;;;;6.60;1.60;;;;;;;;;;4376948;32;20491;-73
2021/04/25 09:15:52;;;;;;;5.70;1.50;;;;;;;;;;4376519;32;20127;-73
2021/04/25 09:18:29;;;;;;;4.93;1.33;;;;;;;;;;4376826;32;20621;-74
2021/04/25 09:21:11;;;;;;;4.63;1.50;;;;;;;;;;4376892;32;20126;-73
2021/04/25 09:23:45;;;;;;;5.60;1.70;;;;;;;;;;4376932;32;20205;-73
2021/04/25 09:26:11;;;;;;;12.07;1.77;;;;;;;;;;4376782;32;20130;-73
2021/04/25 09:28:38;;;;;;;4.95;1.52;;;;;;;;;;4376243;32;20131;-72
2021/04/25 09:31:14;;;;;;;7.70;1.50;;;;;;;;;;4376324;32;20206;-73
2021/04/25 09:33:49;;;;;;;6.55;1.73;;;;;;;;;;4376543;32;20290;-73
2021/04/25 09:36:17;;;;;;;10.45;1.80;;;;;;;;;;4377664;32;20209;-73
2021/04/25 09:38:42;;;;;;;12.87;2.07;;;;;;;;;;4376345;32;20188;-74
2021/04/25 09:41:08;;;;;;;6.15;1.62;;;;;;;;;;4375773;32;20498;-73
2021/04/25 09:43:45;;;;;;;5.23;1.60;;;;;;;;;;4376267;32;20123;-72
2021/04/25 09:46:11;;;;;;;8.23;1.80;;;;;;;;;;4362448;32;20519;-74
2021/04/25 09:48:42;;;;;;;10.83;2.10;;;;;;;;;;4376335;32;20180;-75
2021/04/25 09:51:14;;;;;;;7.30;1.80;;;;;;;;;;4375970;32;20233;-73
2021/04/25 09:53:57;;;;;;;6.43;1.65;;;;;;;;;;4376166;32;20127;-74
2021/04/25 09:56:24;;;;;;;7.37;1.90;;;;;;;;;;4376343;32;20127;-73
2021/04/25 09:59:08;;;;;;;5.50;1.65;;;;;;;;;;4375680;32;20198;-73
2021/04/25 10:01:38;;;;;;;6.00;1.67;;;;;;;;;;4375654;32;20173;-72
2021/04/25 10:04:04;;;;;;;7.65;2.10;;;;;;;;;;4376446;32;20130;-73
2021/04/25 10:06:47;;;;;;;7.47;2.10;;;;;;;;;;4375724;32;20236;-74
2021/04/25 10:09:16;;;;;;;13.07;1.93;;;;;;;;;;4376060;32;20162;-73
2021/04/25 10:11:50;;;;;;;7.90;1.80;;;;;;;;;;4375660;32;20189;-73
2021/04/25 10:17:33;;;;;;;5.87;1.47;;;;;;;;;;4341315;32;20193;-74
2021/04/25 10:20:07;;;;;;;8.30;1.80;;;;;;;;;;4313806;33;20152;-72
2021/04/25 10:22:43;;;;;;;6.45;1.80;;;;;;;;;;4372208;32;20167;-73
2021/04/25 10:25:09;;;;;;;7.18;1.75;;;;;;;;;;4361732;32;20151;-74
2021/04/25 10:27:40;;;;;;;8.85;2.17;;;;;;;;;;4375794;32;20634;-73
2021/04/25 10:30:09;;;;;;;9.10;1.80;;;;;;;;;;4375550;32;20135;-74
2021/04/25 10:32:44;;;;;;;12.68;1.62;;;;;;;;;;4375904;32;20127;-74
2021/04/25 10:35:21;;;;;;;4.47;1.60;;;;;;;;;;4376150;32;20158;-74
2021/04/25 10:37:48;;;;;;;8.07;1.98;;;;;;;;;;4376072;32;20139;-72
2021/04/25 10:40:20;;;;;;;6.25;1.50;;;;;;;;;;4375196;32;20131;-70
2021/04/25 10:43:11;;;;;;;5.85;1.55;;;;;;;;;;4375427;32;20134;-73
2021/04/25 10:45:56;;;;;;;9.18;2.00;;;;;;;;;;4376015;32;20210;-74
2021/04/25 10:48:22;;;;;;;4.78;1.77;;;;;;;;;;4374987;32;20165;-73
2021/04/25 10:50:49;;;;;;;7.80;1.87;;;;;;;;;;4375015;32;20143;-73
2021/04/25 10:53:24;;;;;;;7.25;2.00;;;;;;;;;;4374521;32;20134;-74
2021/04/25 10:55:50;;;;;;;5.07;1.70;;;;;;;;;;4375631;32;20123;-73
2021/04/25 10:58:23;;;;;;;5.35;2.05;;;;;;;;;;4375319;32;20512;-73
2021/04/25 11:00:54;;;;;;;6.70;1.85;;;;;;;;;;4374416;32;20154;-73
2021/04/25 11:03:19;;;;;;;5.68;1.67;;;;;;;;;;4375593;32;20280;-73
2021/04/25 11:08:48;;;;;;;10.82;2.03;;;;;;;;;;4375246;32;20210;-73
2021/04/25 11:11:30;;;;;;;10.52;2.10;;;;;;;;;;4374426;32;20151;-72
2021/04/25 11:13:59;;;;;;;5.80;1.70;;;;;;;;;;4375619;32;20222;-73
2021/04/25 11:16:26;;;;;;;8.63;1.90;;;;;;;;;;4374733;32;20467;-73
2021/04/25 11:19:12;;;;;;;8.32;1.90;;;;;;;;;;4374929;32;20218;-73
2021/04/25 11:22:10;;;;;;;6.12;1.70;;;;;;;;;;4375482;32;20193;-72
2021/04/25 11:24:36;;;;;;;11.48;2.53;;;;;;;;;;4359684;32;20165;-74
2021/04/25 11:27:01;;;;;;;7.78;1.90;;;;;;;;;;4374994;32;20432;-74
2021/04/25 11:29:33;;;;;;;4.07;1.60;;;;;;;;;;4374687;32;20535;-73
2021/04/25 11:32:04;;;;;;;8.93;1.70;;;;;;;;;;4374650;32;20142;-73
2021/04/25 11:34:33;;;;;;;9.23;2.40;;;;;;;;;;4374631;32;20162;-73
2021/04/25 11:37:06;;;;;;;4.60;1.80;;;;;;;;;;4375087;32;20209;-74
2021/04/25 11:39:34;;;;;;;5.60;1.80;;;;;;;;;;4374525;32;20135;-73
2021/04/25 11:42:00;;;;;;;5.72;1.83;;;;;;;;;;4374382;32;20157;-74
2021/04/25 11:47:31;;;;;;;5.45;1.42;;;;;;;;;;4374840;32;20579;-74
2021/04/25 11:49:58;;;;;;;7.70;2.03;;;;;;;;;;4374432;32;20544;-70
2021/04/25 11:52:39;;;;;;;5.00;1.83;;;;;;;;;;4374343;32;20134;-75
2021/04/25 11:55:15;;;;;;;8.43;1.90;;;;;;;;;;4374802;32;20139;-74
2021/04/25 11:57:53;;;;;;;3.97;1.42;;;;;;;;;;4375020;32;20217;-74
2021/04/25 12:00:21;;;;;;;6.32;1.50;;;;;;;;;;4374868;32;20139;-74
2021/04/25 12:03:20;;;;;;;6.90;1.83;;;;;;;;;;4374821;32;20138;-74
2021/04/25 12:05:46;;;;;;;7.37;1.70;;;;;;;;;;4300829;33;20235;-74
2021/04/25 12:08:12;;;;;;;4.35;1.40;;;;;;;;;;4371639;32;20155;-74
2021/04/25 12:10:42;;;;;;;5.30;1.45;;;;;;;;;;4363672;32;20313;-74
2021/04/25 12:13:09;;;;;;;6.15;1.80;;;;;;;;;;4377425;32;20617;-74
2021/04/25 12:15:53;;;;;;;8.27;1.70;;;;;;;;;;4377600;32;20147;-74
2021/04/25 12:18:46;;;;;;;7.97;2.05;;;;;;;;;;4358225;32;20235;-74
2021/04/25 12:21:19;;;;;;;9.18;2.30;;;;;;;;;;4347602;33;20151;-74
2021/04/25 12:24:22;;;;;;;7.47;1.70;;;;;;;;;;4348249;33;20190;-75
2021/04/25 12:26:47;;;;;;;5.00;1.60;;;;;;;;;;4362228;32;20146;-75
2021/04/25 12:29:16;;;;;;;5.93;1.45;;;;;;;;;;4361362;32;20217;-75
2021/04/25 12:31:43;;;;;;;5.70;1.65;;;;;;;;;;4361957;32;20155;-73
2021/04/25 12:34:13;;;;;;;7.62;1.70;;;;;;;;;;4361132;33;20193;-75
2021/04/25 12:36:46;;;;;;;6.40;1.50;;;;;;;;;;4362964;33;20177;-72
2021/04/25 12:39:11;;;;;;;4.68;1.52;;;;;;;;;;4360821;33;20200;-73
2021/04/25 12:42:09;;;;;;;3.93;1.47;;;;;;;;;;4362419;33;20131;-74
2021/04/25 12:44:38;;;;;;;8.20;1.67;;;;;;;;;;4329194;32;20252;-73
2021/04/25 12:47:09;;;;;;;7.25;1.85;;;;;;;;;;4360487;32;20607;-72
2021/04/25 12:49:34;;;;;;;6.22;1.50;;;;;;;;;;4358176;32;20163;-74
2021/04/25 12:52:00;;;;;;;5.10;1.80;;;;;;;;;;4345702;33;20260;-74
2021/04/25 12:54:34;;;;;;;6.35;1.52;;;;;;;;;;4347113;33;20580;-75
2021/04/25 12:57:02;;;;;;;4.28;1.48;;;;;;;;;;4347410;32;20238;-76
2021/04/25 12:59:31;;;;;;;3.95;1.40;;;;;;;;;;4347777;33;20139;-74
2021/04/25 13:02:07;;;;;;;3.53;1.33;;;;;;;;;;4345965;33;20498;-74
2021/04/25 13:04:35;;;;;;;5.80;1.60;;;;;;;;;;4346876;33;20119;-74
2021/04/25 13:07:39;;;;;;;4.18;1.40;;;;;;;;;;4346626;33;20525;-73
2021/04/25 13:10:18;;;;;;;4.85;1.17;;;;;;;;;;4346479;33;20158;-73
2021/04/25 13:12:56;;;;;;;2.22;1.17;;;;;;;;;;4345138;33;20144;-75
2021/04/25 13:15:53;;;;;;;3.55;1.20;;;;;;;;;;4346300;33;20627;-74
2021/04/25 13:18:21;;;;;;;7.28;1.55;;;;;;;;;;4345962;33;20147;-73
2021/04/25 13:20:48;;;;;;;5.70;1.52;;;;;;;;;;4333129;33;20497;-73
2021/04/25 13:23:13;;;;;;;2.97;1.30;;;;;;;;;;4347051;33;20526;-74
2021/04/25 13:25:41;;;;;;;5.70;1.80;;;;;;;;;;4347380;33;20159;-75
2021/04/25 13:28:07;;;;;;;6.75;1.50;;;;;;;;;;4346839;33;20153;-74
2021/04/25 13:30:43;;;;;;;6.45;1.70;;;;;;;;;;4346455;33;20143;-73
2021/04/25 13:33:12;;;;;;;3.72;1.30;;;;;;;;;;4346053;33;20158;-74
2021/04/25 13:35:37;;;;;;;4.00;1.27;;;;;;;;;;4346108;33;20132;-74
2021/04/25 13:38:02;;;;;;;5.30;1.60;;;;;;;;;;4346356;33;20154;-75
2021/04/25 13:40:30;;;;;;;7.03;1.50;;;;;;;;;;4346718;33;20204;-73
2021/04/25 13:43:05;;;;;;;6.65;1.55;;;;;;;;;;4347081;33;20144;-75
2021/04/25 13:45:34;;;;;;;6.12;1.60;;;;;;;;;;4346569;33;20475;-75
2021/04/25 13:48:37;;;;;;;7.93;1.73;;;;;;;;;;4346657;33;20158;-73
2021/04/25 13:51:07;;;;;;;5.30;1.67;;;;;;;;;;4300444;33;20231;-74
2021/04/25 13:53:51;;;;;;;5.68;1.52;;;;;;;;;;4300486;33;20156;-73
2021/04/25 13:56:22;;;;;;;7.82;1.65;;;;;;;;;;4300229;33;20235;-73
2021/04/25 13:58:47;;;;;;;4.87;1.60;;;;;;;;;;4315776;33;20147;-74
2021/04/25 14:01:24;;;;;;;3.75;1.60;;;;;;;;;;4332455;33;20163;-73
2021/04/25 14:03:50;;;;;;;4.97;1.75;;;;;;;;;;4332943;33;20611;-73
2021/04/25 14:06:20;;;;;;;3.25;1.40;;;;;;;;;;4346187;33;20128;-73
2021/04/25 14:08:49;;;;;;;4.93;1.70;;;;;;;;;;4346048;33;20208;-74
2021/04/25 14:11:20;;;;;;;3.92;1.40;;;;;;;;;;4360626;32;20217;-74
2021/04/25 14:13:50;;;;;;;5.10;1.50;;;;;;;;;;4361201;32;20142;-73
2021/04/25 14:16:28;;;;;;;4.80;1.50;;;;;;;;;;4347562;33;20206;-73
2021/04/25 14:19:07;;;;;;;4.47;1.50;;;;;;;;;;4347400;33;20154;-75
2021/04/25 14:21:33;;;;;;;3.75;1.50;;;;;;;;;;4347348;33;20472;-75
2021/04/25 14:24:07;;;;;;;8.05;1.45;;;;;;;;;;4360602;32;20158;-75
2021/04/25 14:26:33;;;;;;;5.80;1.60;;;;;;;;;;4361203;32;20149;-75
2021/04/25 14:29:10;;;;;;;6.47;1.92;;;;;;;;;;4360399;32;20205;-74
2021/04/25 14:31:35;;;;;;;4.97;1.50;;;;;;;;;;4360030;32;20177;-73
2021/04/25 14:34:01;;;;;;;5.07;1.67;;;;;;;;;;4359486;32;20155;-74
2021/04/25 14:36:26;;;;;;;7.18;1.65;;;;;;;;;;4360346;32;20131;-74
2021/04/25 14:38:51;;;;;;;4.30;1.40;;;;;;;;;;4359924;33;20485;-74
2021/04/25 14:41:17;;;;;;;7.68;1.80;;;;;;;;;;4360000;32;20123;-70
2021/04/25 14:43:42;;;;;;;4.45;1.70;;;;;;;;;;4359853;32;20206;-72
2021/04/25 14:46:09;;;;;;;4.00;1.90;;;;;;;;;;4346544;33;20623;-72
2021/04/25 14:48:41;;;;;;;5.68;1.98;;;;;;;;;;4347250;33;20493;-73
2021/04/25 14:51:07;;;;;;;7.07;1.60;;;;;;;;;;4360689;32;20186;-74
2021/04/25 14:53:32;;;;;;;7.32;1.70;;;;;;;;;;4360376;32;20169;-74
2021/04/25 14:56:00;;;;;;;4.82;1.70;;;;;;;;;;4360315;32;20131;-73
2021/04/25 14:58:28;;;;;;;4.03;1.50;;;;;;;;;;4359817;32;20568;-74
2021/04/25 15:00:53;;;;;;;6.28;2.00;;;;;;;;;;4359830;32;20185;-74
2021/04/25 15:03:27;;;;;;;3.22;1.50;;;;;;;;;;4360034;32;20127;-74
2021/04/25 15:05:53;;;;;;;3.62;1.60;;;;;;;;;;4360166;33;20127;-74
2021/04/25 15:08:18;;;;;;;3.58;1.45;;;;;;;;;;4360748;32;20131;-74
2021/04/25 15:10:46;;;;;;;4.35;1.92;;;;;;;;;;4360224;32;20257;-71
2021/04/25 15:13:31;;;;;;;7.35;1.87;;;;;;;;;;4360075;32;20217;-74
2021/04/25 15:15:56;;;;;;;5.18;2.75;;;;;;;;;;4360138;32;20162;-75
2021/04/25 15:18:21;;;;;;;2.85;1.30;;;;;;;;;;4359928;32;20483;-74
2021/04/25 15:20:47;;;;;;;4.10;1.42;;;;;;;;;;4359810;33;20135;-74
2021/04/25 15:23:12;;;;;;;3.95;1.45;;;;;;;;;;4359681;33;20200;-75
2021/04/25 15:25:38;;;;;;;6.10;1.45;;;;;;;;;;4359641;33;20492;-73
2021/04/25 15:28:04;;;;;;;2.95;1.40;;;;;;;;;;4360150;33;20153;-74
2021/04/25 15:30:30;;;;;;;5.70;1.58;;;;;;;;;;4360206;33;20139;-73
2021/04/25 15:32:56;;;;;;;6.00;1.40;;;;;;;;;;4359591;33;20170;-75
2021/04/25 15:35:23;;;;;;;4.43;1.60;;;;;;;;;;4359983;33;20186;-71
2021/04/25 15:37:49;;;;;;;7.07;1.73;;;;;;;;;;4359874;33;20135;-76
2021/04/25 15:40:19;;;;;;;5.18;1.75;;;;;;;;;;4347312;33;20194;-73
2021/04/25 15:42:47;;;;;;;3.65;1.50;;;;;;;;;;4362926;32;20127;-71
2021/04/25 15:45:17;;;;;;;3.12;1.60;;;;;;;;;;4362501;32;20226;-74
2021/04/25 15:47:45;;;;;;;5.87;1.30;;;;;;;;;;4363286;32;20517;-74
2021/04/25 15:50:11;;;;;;;5.90;1.40;;;;;;;;;;4362980;32;20492;-73
2021/04/25 15:52:36;;;;;;;6.32;1.67;;;;;;;;;;4362458;32;20127;-74
2021/04/25 15:55:02;;;;;;;2.47;1.33;;;;;;;;;;4362608;32;20158;-74
2021/04/25 15:57:41;;;;;;;4.55;1.50;;;;;;;;;;4349075;33;20557;-72
2021/04/25 16:00:07;;;;;;;4.28;1.33;;;;;;;;;;4363139;32;20180;-74
2021/04/25 16:02:33;;;;;;;4.95;1.55;;;;;;;;;;4363013;33;20226;-72
2021/04/25 16:04:58;;;;;;;5.12;1.37;;;;;;;;;;4362671;32;20218;-75
2021/04/25 16:07:25;;;;;;;3.95;1.35;;;;;;;;;;4362915;32;20127;-75
2021/04/25 16:09:51;;;;;;;5.37;1.35;;;;;;;;;;4362105;32;20237;-71
2021/04/25 16:12:16;;;;;;;5.18;1.52;;;;;;;;;;4362487;32;20584;-76
2021/04/25 16:14:47;;;;;;;6.28;1.67;;;;;;;;;;4349474;33;20139;-74
2021/04/25 16:17:25;;;;;;;4.47;1.70;;;;;;;;;;4350528;33;20146;-74
2021/04/25 16:19:50;;;;;;;3.25;1.40;;;;;;;;;;4362821;32;20142;-74
2021/04/25 16:22:15;;;;;;;3.47;1.40;;;;;;;;;;4348314;33;20194;-74
2021/04/25 16:24:40;;;;;;;5.00;1.50;;;;;;;;;;4362470;32;20166;-75
2021/04/25 16:27:06;;;;;;;4.37;1.50;;;;;;;;;;4362312;32;20127;-73
2021/04/25 16:29:38;;;;;;;3.87;1.50;;;;;;;;;;4363297;32;20177;-74
2021/04/25 16:32:03;;;;;;;5.97;1.40;;;;;;;;;;4362577;32;20135;-74
2021/04/25 16:34:29;;;;;;;6.72;2.08;;;;;;;;;;4362012;32;20162;-74
2021/04/25 16:36:54;;;;;;;4.97;1.67;;;;;;;;;;4362716;32;20127;-75
2021/04/25 16:39:19;;;;;;;5.80;1.35;;;;;;;;;;4362198;32;20187;-75
2021/04/25 16:41:45;;;;;;;4.55;1.60;;;;;;;;;;4362479;32;20505;-75
2021/04/25 16:44:12;;;;;;;3.20;1.25;;;;;;;;;;4362641;32;20159;-73
2021/04/25 16:46:46;;;;;;;7.65;1.40;;;;;;;;;;4362137;32;20210;-74
2021/04/25 16:49:22;;;;;;;4.47;1.45;;;;;;;;;;4361963;32;20153;-74
2021/04/25 16:52:10;;;;;;;4.93;1.60;;;;;;;;;;4362811;32;20150;-74
2021/04/25 16:54:35;;;;;;;6.37;1.58;;;;;;;;;;4362089;32;20181;-75
2021/04/25 16:57:04;;;;;;;5.12;1.87;;;;;;;;;;4361605;32;20158;-74
2021/04/25 16:59:30;;;;;;;5.87;1.77;;;;;;;;;;4362172;32;20197;-76
2021/04/25 17:02:01;;;;;;;4.85;1.42;;;;;;;;;;4348919;33;20151;-73
2021/04/25 17:04:53;;;;;;;5.35;1.67;;;;;;;;;;4361662;33;20511;-74
2021/04/25 17:07:41;;;;;;;4.00;1.20;;;;;;;;;;4338035;33;20171;-74
2021/04/25 17:10:08;;;;;;;7.85;1.75;;;;;;;;;;4362348;32;20192;-74
2021/04/25 17:12:33;;;;;;;3.12;1.48;;;;;;;;;;4361241;32;20159;-73
2021/04/25 17:14:59;;;;;;;5.55;1.75;;;;;;;;;;4362314;32;20234;-74
2021/04/25 17:17:50;;;;;;;4.85;1.55;;;;;;;;;;4362014;32;20146;-75
2021/04/25 17:20:16;;;;;;;7.18;1.65;;;;;;;;;;4355407;33;20147;-74
2021/04/25 17:22:48;;;;;;;7.90;1.70;;;;;;;;;;4361305;32;20135;-75
2021/04/25 17:25:14;;;;;;;6.10;1.67;;;;;;;;;;4361292;33;20154;-75
2021/04/25 17:27:39;;;;;;;5.62;1.50;;;;;;;;;;4361549;32;20214;-74
2021/04/25 17:30:08;;;;;;;4.90;1.40;;;;;;;;;;4361985;32;20150;-74
2021/04/25 17:32:36;;;;;;;6.00;1.48;;;;;;;;;;4361796;32;20154;-73
2021/04/25 17:35:05;;;;;;;4.72;1.52;;;;;;;;;;4361634;32;20561;-74
2021/04/25 17:37:31;;;;;;;4.03;1.60;;;;;;;;;;4361644;32;20588;-74
2021/04/25 17:39:57;;;;;;;5.00;1.85;;;;;;;;;;4361975;32;20139;-74
2021/04/25 17:42:22;;;;;;;9.02;1.50;;;;;;;;;;4362503;32;20139;-75
2021/04/25 17:44:51;;;;;;;6.75;1.58;;;;;;;;;;4361098;32;20163;-74